createdAt,value
2018-02-01T00:02:06.104Z,99172.23
2018-02-01T00:04:34.454Z,99176.73
2018-02-01T00:07:02.766Z,99169.91
2018-02-01T00:09:31.122Z,99166.56
2018-02-01T00:11:59.466Z,99170.23
2018-02-01T00:14:27.818Z,99165.42
2018-02-01T00:16:56.930Z,99168.08
2018-02-01T00:19:25.283Z,99161.48
2018-02-01T00:21:53.615Z,99161.50
2018-02-01T00:24:21.991Z,99162.84
2018-02-01T00:26:50.318Z,99165.02
2018-02-01T00:29:18.634Z,99172.91
2018-02-01T00:31:47.018Z,99174.19
2018-02-01T00:34:15.354Z,99165.34
2018-02-01T00:36:44.478Z,99158.26
2018-02-01T00:39:12.798Z,99166.07
2018-02-01T00:41:41.145Z,99164.16
2018-02-01T00:44:09.518Z,99172.53
2018-02-01T00:46:37.846Z,99174.72
2018-02-01T00:49:06.202Z,99168.91
2018-02-01T00:51:34.517Z,99177.67
2018-02-01T00:54:03.640Z,99182.05
2018-02-01T00:56:31.962Z,99178.97
2018-02-01T00:59:00.290Z,99177.54
2018-02-01T01:01:28.634Z,99172.78
2018-02-01T01:03:56.953Z,99179.40
2018-02-01T01:06:25.297Z,99177.67
2018-02-01T01:08:53.626Z,99176.48
2018-02-01T01:11:21.964Z,99175.36
2018-02-01T01:13:51.058Z,99178.13
2018-02-01T01:16:20.171Z,99178.94
2018-02-01T01:18:48.540Z,99180.23
2018-02-01T01:21:16.898Z,99180.22
2018-02-01T01:23:45.998Z,99177.13
2018-02-01T01:26:15.078Z,99174.50
2018-02-01T01:28:44.203Z,99169.17
2018-02-01T01:31:12.553Z,99171.81
2018-02-01T01:33:41.641Z,99167.39
2018-02-01T01:36:09.981Z,99171.20
2018-02-01T01:38:38.293Z,99172.80
2018-02-01T01:41:06.649Z,99159.48
2018-02-01T01:43:35.015Z,99165.94
2018-02-01T01:46:11.153Z,99169.36
2018-02-01T01:48:39.477Z,99176.94
2018-02-01T01:51:07.825Z,99178.37
2018-02-01T01:53:36.500Z,99180.11
2018-02-01T01:56:04.829Z,99182.34
2018-02-01T01:58:33.155Z,99191.26
2018-02-01T02:01:01.514Z,99187.05
2018-02-01T02:03:29.865Z,99185.84
2018-02-01T02:05:58.189Z,99174.25
2018-02-01T02:08:26.540Z,99174.95
2018-02-01T02:10:55.664Z,99176.73
2018-02-01T02:13:23.981Z,99180.92
2018-02-01T02:15:52.361Z,99165.77
2018-02-01T02:18:20.701Z,99185.44
2018-02-01T02:20:49.085Z,99187.09
2018-02-01T02:23:17.401Z,99191.13
2018-02-01T02:25:45.740Z,99180.30
2018-02-01T02:28:14.085Z,99182.23
2018-02-01T02:30:42.397Z,99180.64
2018-02-01T02:33:10.742Z,99185.41
2018-02-01T02:35:39.087Z,99189.28
2018-02-01T02:38:10.565Z,99188.91
2018-02-01T02:40:38.921Z,99197.75
2018-02-01T02:43:08.009Z,99202.67
2018-02-01T02:45:36.362Z,99208.64
2018-02-01T02:48:04.706Z,99201.52
2018-02-01T02:50:33.033Z,99205.34
2018-02-01T02:53:01.353Z,99199.30
2018-02-01T02:55:29.700Z,99194.23
2018-02-01T02:57:58.784Z,99197.33
2018-02-01T03:00:27.209Z,99201.88
2018-02-01T03:02:55.548Z,99199.32
2018-02-01T03:05:23.862Z,99202.84
2018-02-01T03:07:52.624Z,99205.06
2018-02-01T03:10:21.749Z,99205.64
2018-02-01T03:12:50.086Z,99208.27
2018-02-01T03:15:18.393Z,99204.19
2018-02-01T03:17:46.738Z,99210.19
2018-02-01T03:20:15.048Z,99205.70
2018-02-01T03:22:43.353Z,99210.98
2018-02-01T03:25:11.693Z,99201.25
2018-02-01T03:27:40.781Z,99194.72
2018-02-01T03:30:09.893Z,99197.83
2018-02-01T03:32:38.269Z,99204.84
2018-02-01T03:35:06.581Z,99206.53
2018-02-01T03:38:02.870Z,99206.11
2018-02-01T03:40:31.952Z,99204.20
2018-02-01T03:43:01.065Z,99214.66
2018-02-01T03:45:29.382Z,99214.31
2018-02-01T03:47:57.728Z,99221.86
2018-02-01T03:50:26.040Z,99219.27
2018-02-01T03:52:54.417Z,99220.18
2018-02-01T03:55:22.748Z,99230.28
2018-02-01T03:57:51.097Z,99232.55
2018-02-01T04:00:19.464Z,99226.47
2018-02-01T04:02:47.829Z,99237.11
2018-02-01T04:05:16.148Z,99222.98
2018-02-01T04:07:45.228Z,99227.20
2018-02-01T04:10:13.577Z,99230.70
2018-02-01T04:12:41.940Z,99229.65
2018-02-01T04:15:10.304Z,99238.17
2018-02-01T04:17:38.638Z,99232.10
2018-02-01T04:20:07.000Z,99232.17
2018-02-01T04:22:35.359Z,99227.04
2018-02-01T04:25:03.824Z,99223.30
2018-02-01T04:27:32.912Z,99224.58
2018-02-01T04:30:01.364Z,99218.99
2018-02-01T04:32:29.704Z,99216.81
2018-02-01T04:34:58.036Z,99218.14
2018-02-01T04:37:27.364Z,99220.22
2018-02-01T04:39:55.680Z,99227.62
2018-02-01T04:42:24.061Z,99224.98
2018-02-01T04:44:52.390Z,99226.30
2018-02-01T04:47:20.740Z,99233.27
2018-02-01T04:49:49.856Z,99234.05
2018-02-01T04:52:18.211Z,99235.17
2018-02-01T04:54:46.581Z,99237.87
2018-02-01T04:57:15.656Z,99239.72
2018-02-01T04:59:44.638Z,99284.87
2018-02-01T05:02:12.956Z,99252.07
2018-02-01T05:04:41.312Z,99262.58
2018-02-01T05:07:09.636Z,99263.88
2018-02-01T05:09:37.969Z,99262.55
2018-02-01T05:12:07.100Z,99265.94
2018-02-01T05:14:35.596Z,99271.70
2018-02-01T05:17:03.964Z,99280.46
2018-02-01T05:19:32.348Z,99283.57
2018-02-01T05:22:00.704Z,99278.02
2018-02-01T05:24:29.043Z,99281.52
2018-02-01T05:26:57.365Z,99286.59
2018-02-01T05:29:25.693Z,99289.36
2018-02-01T05:31:54.013Z,99296.91
2018-02-01T05:34:22.337Z,99293.22
2018-02-01T05:36:50.631Z,99303.74
2018-02-01T05:39:18.981Z,99311.23
2018-02-01T05:41:47.311Z,99323.88
2018-02-01T05:44:15.625Z,99313.15
2018-02-01T05:46:43.961Z,99308.91
2018-02-01T05:49:13.033Z,99291.59
2018-02-01T05:51:41.414Z,99304.81
2018-02-01T05:54:09.713Z,99299.28
2018-02-01T05:56:38.820Z,99296.70
2018-02-01T05:59:07.153Z,99297.67
2018-02-01T06:01:35.569Z,99295.09
2018-02-01T06:04:03.874Z,99299.92
2018-02-01T06:06:32.228Z,99305.91
2018-02-01T06:09:00.529Z,99309.81
2018-02-01T06:11:28.885Z,99311.09
2018-02-01T06:13:57.210Z,99317.66
2018-02-01T06:16:25.513Z,99323.80
2018-02-01T06:18:53.841Z,99322.04
2018-02-01T06:21:22.129Z,99313.29
2018-02-01T06:23:50.453Z,99314.19
2018-02-01T06:26:18.800Z,99305.53
2018-02-01T06:28:47.140Z,99314.20
2018-02-01T06:31:15.432Z,99324.23
2018-02-01T06:33:43.776Z,99328.56
2018-02-01T06:36:12.104Z,99321.69
2018-02-01T06:38:40.404Z,99323.88
2018-02-01T06:41:08.728Z,99320.39
2018-02-01T06:43:37.029Z,99321.25
2018-02-01T06:46:06.164Z,99329.13
2018-02-01T06:48:35.232Z,99327.39
2018-02-01T06:51:03.568Z,99334.73
2018-02-01T06:53:31.868Z,99339.95
2018-02-01T06:56:00.220Z,99337.30
2018-02-01T06:58:29.288Z,99349.94
2018-02-01T07:00:58.915Z,99356.03
2018-02-01T07:03:27.960Z,99366.45
2018-02-01T07:05:57.060Z,99365.95
2018-02-01T07:08:25.364Z,99368.16
2018-02-01T07:10:53.740Z,99373.78
2018-02-01T07:13:22.079Z,99376.27
2018-02-01T07:15:50.407Z,99384.16
2018-02-01T07:18:18.750Z,99385.34
2018-02-01T07:20:47.105Z,99387.81
2018-02-01T07:23:15.419Z,99392.02
2018-02-01T07:25:44.563Z,99395.77
2018-02-01T07:28:12.900Z,99403.16
2018-02-01T07:30:41.279Z,99400.90
2018-02-01T07:33:09.587Z,99403.95
2018-02-01T07:35:37.938Z,99396.51
2018-02-01T07:38:06.309Z,99407.77
2018-02-01T07:40:35.399Z,99408.27
2018-02-01T07:43:04.527Z,99417.29
2018-02-01T07:45:33.822Z,99413.09
2018-02-01T07:48:02.139Z,99415.09
2018-02-01T07:50:30.559Z,99410.36
2018-02-01T07:52:58.875Z,99412.77
2018-02-01T07:55:27.195Z,99414.45
2018-02-01T07:57:56.303Z,99425.34
2018-02-01T08:00:25.386Z,99424.08
2018-02-01T08:02:54.511Z,99420.50
2018-02-01T08:05:22.820Z,99429.14
2018-02-01T08:07:51.931Z,99431.16
2018-02-01T08:10:20.247Z,99435.36
2018-02-01T08:12:48.584Z,99435.49
2018-02-01T08:15:16.894Z,99430.44
2018-02-01T08:17:46.370Z,99432.44
2018-02-01T08:20:14.716Z,99433.23
2018-02-01T08:22:43.430Z,99428.34
2018-02-01T08:25:11.790Z,99435.46
2018-02-01T08:27:40.099Z,99440.69
2018-02-01T08:30:08.463Z,99439.15
2018-02-01T08:32:36.844Z,99440.27
2018-02-01T08:35:05.160Z,99439.21
2018-02-01T08:37:33.475Z,99435.03
2018-02-01T08:40:01.848Z,99439.11
2018-02-01T08:42:30.206Z,99443.16
2018-02-01T08:44:58.570Z,99447.19
2018-02-01T08:47:26.878Z,99451.26
2018-02-01T08:49:55.186Z,99447.70
2018-02-01T08:52:23.550Z,99443.04
2018-02-01T08:54:51.875Z,99442.02
2018-02-01T08:57:20.258Z,99449.33
2018-02-01T08:59:48.602Z,99451.68
2018-02-01T09:02:16.990Z,99451.97
2018-02-01T09:04:46.086Z,99458.53
2018-02-01T09:07:15.202Z,99456.07
2018-02-01T09:09:43.566Z,99460.74
2018-02-01T09:12:12.686Z,99468.36
2018-02-01T09:14:41.034Z,99463.67
2018-02-01T09:17:10.171Z,99471.84
2018-02-01T09:19:38.481Z,99469.16
2018-02-01T09:22:06.802Z,99465.42
2018-02-01T09:24:35.153Z,99459.83
2018-02-01T09:27:04.242Z,99461.00
2018-02-01T09:29:32.570Z,99454.80
2018-02-01T09:32:00.923Z,99464.62
2018-02-01T09:34:29.642Z,99466.78
2018-02-01T09:36:57.998Z,99469.42
2018-02-01T09:39:26.342Z,99466.56
2018-02-01T09:41:54.697Z,99466.20
2018-02-01T09:44:23.021Z,99467.13
2018-02-01T09:46:51.411Z,99470.20
2018-02-01T09:49:19.770Z,99468.60
2018-02-01T09:51:48.854Z,99474.30
2018-02-01T09:54:17.957Z,99474.79
2018-02-01T09:56:47.038Z,99475.86
2018-02-01T09:59:15.385Z,99477.56
2018-02-01T10:01:43.722Z,99476.22
2018-02-01T10:04:12.068Z,99474.67
2018-02-01T10:06:40.413Z,99467.53
2018-02-01T10:09:08.733Z,99476.00
2018-02-01T10:11:37.856Z,99469.70
2018-02-01T10:14:06.181Z,99464.02
2018-02-01T10:16:34.540Z,99464.66
2018-02-01T10:19:02.884Z,99468.03
2018-02-01T10:21:31.195Z,99477.77
2018-02-01T10:23:59.555Z,99474.41
2018-02-01T10:26:27.909Z,99483.09
2018-02-01T10:28:56.266Z,99487.61
2018-02-01T10:31:25.359Z,99491.14
2018-02-01T10:33:53.699Z,99487.05
2018-02-01T10:36:22.061Z,99489.38
2018-02-01T10:38:50.377Z,99482.73
2018-02-01T10:41:18.733Z,99478.44
2018-02-01T10:43:47.085Z,99482.30
2018-02-01T10:46:15.405Z,99487.11
2018-02-01T10:48:43.761Z,99481.23
2018-02-01T10:51:12.109Z,99479.83
2018-02-01T10:53:41.237Z,99471.13
2018-02-01T10:56:09.589Z,99479.38
2018-02-01T10:58:37.901Z,99477.45
2018-02-01T11:01:06.262Z,99470.69
2018-02-01T11:03:34.575Z,99473.17
2018-02-01T11:06:02.925Z,99469.44
2018-02-01T11:08:31.285Z,99473.93
2018-02-01T11:10:59.637Z,99470.66
2018-02-01T11:13:27.991Z,99470.35
2018-02-01T11:15:56.305Z,99461.51
2018-02-01T11:18:24.645Z,99466.63
2018-02-01T11:20:52.989Z,99466.99
2018-02-01T11:23:21.345Z,99472.36
2018-02-01T11:25:49.669Z,99479.62
2018-02-01T11:28:18.005Z,99479.03
2018-02-01T11:30:46.348Z,99476.48
2018-02-01T11:33:15.425Z,99484.91
2018-02-01T11:35:43.830Z,99484.69
2018-02-01T11:38:12.184Z,99482.75
2018-02-01T11:40:40.538Z,99488.49
2018-02-01T11:43:08.886Z,99485.28
2018-02-01T11:45:37.225Z,99480.72
2018-02-01T11:48:06.342Z,99476.97
2018-02-01T11:50:34.662Z,99476.29
2018-02-01T11:53:03.049Z,99476.78
2018-02-01T11:55:31.376Z,99479.95
2018-02-01T11:57:59.709Z,99495.03
2018-02-01T12:00:28.058Z,99482.83
2018-02-01T12:02:56.385Z,99488.53
2018-02-01T12:05:25.506Z,99478.56
2018-02-01T12:07:53.832Z,99479.49
2018-02-01T12:10:22.178Z,99465.84
2018-02-01T12:12:50.490Z,99461.31
2018-02-01T12:15:18.846Z,99469.31
2018-02-01T12:17:47.176Z,99475.63
2018-02-01T12:20:16.312Z,99481.47
2018-02-01T12:22:44.632Z,99475.77
2018-02-01T12:25:13.025Z,99474.19
2018-02-01T12:27:42.125Z,99476.87
2018-02-01T12:30:10.437Z,99481.19
2018-02-01T12:32:38.796Z,99474.21
2018-02-01T12:35:07.128Z,99478.19
2018-02-01T12:37:35.488Z,99481.94
2018-02-01T12:40:03.804Z,99484.23
2018-02-01T12:42:32.988Z,99479.98
2018-02-01T12:45:01.316Z,99484.18
2018-02-01T12:47:29.672Z,99480.88
2018-02-01T12:49:57.993Z,99485.48
2018-02-01T12:52:26.340Z,99484.13
2018-02-01T12:54:54.648Z,99475.86
2018-02-01T12:57:23.004Z,99480.96
2018-02-01T12:59:51.364Z,99471.40
2018-02-01T13:02:19.728Z,99473.48
2018-02-01T13:04:48.048Z,99475.25
2018-02-01T13:07:17.156Z,99479.45
2018-02-01T13:09:45.912Z,99479.55
2018-02-01T13:12:14.996Z,99476.36
2018-02-01T13:14:43.396Z,99474.09
2018-02-01T13:17:11.723Z,99473.83
2018-02-01T13:19:40.866Z,99474.72
2018-02-01T13:22:09.198Z,99471.81
2018-02-01T13:24:38.269Z,99476.44
2018-02-01T13:27:06.628Z,99473.16
2018-02-01T13:29:34.992Z,99473.89
2018-02-01T13:32:03.464Z,99463.56
2018-02-01T13:34:31.777Z,99467.44
2018-02-01T13:37:00.504Z,99475.38
2018-02-01T13:39:28.856Z,99477.06
2018-02-01T13:41:57.165Z,99476.42
2018-02-01T13:44:25.564Z,99488.88
2018-02-01T13:46:53.872Z,99487.62
2018-02-01T13:49:22.228Z,99468.98
2018-02-01T13:51:50.550Z,99488.41
2018-02-01T13:54:18.888Z,99484.87
2018-02-01T13:56:47.232Z,99481.85
2018-02-01T13:59:15.551Z,99494.61
2018-02-01T14:01:43.908Z,99494.75
2018-02-01T14:04:12.226Z,99490.84
2018-02-01T14:06:40.565Z,99480.64
2018-02-01T14:09:08.872Z,99486.33
2018-02-01T14:11:37.228Z,99487.23
2018-02-01T14:14:05.563Z,99474.56
2018-02-01T14:16:33.941Z,99481.19
2018-02-01T14:19:02.306Z,99470.77
2018-02-01T14:21:31.432Z,99480.69
2018-02-01T14:23:59.759Z,99495.57
2018-02-01T14:26:28.120Z,99493.95
2018-02-01T14:28:56.452Z,99494.83
2018-02-01T14:31:24.817Z,99509.86
2018-02-01T14:33:53.916Z,99492.24
2018-02-01T14:36:23.095Z,99497.98
2018-02-01T14:38:52.304Z,99508.54
2018-02-01T14:41:21.431Z,99492.90
2018-02-01T14:43:49.764Z,99493.59
2018-02-01T14:46:18.141Z,99492.38
2018-02-01T14:48:46.460Z,99488.89
2018-02-01T14:51:14.783Z,99495.44
2018-02-01T14:53:43.152Z,99491.33
2018-02-01T14:56:11.529Z,99497.45
2018-02-01T14:58:39.911Z,99495.81
2018-02-01T15:01:08.263Z,99488.47
2018-02-01T15:03:36.621Z,99493.41
2018-02-01T15:06:04.945Z,99496.05
2018-02-01T15:08:33.311Z,99494.40
2018-02-01T15:11:01.699Z,99498.33
2018-02-01T15:13:30.143Z,99505.80
2018-02-01T15:15:59.255Z,99506.82
2018-02-01T15:18:27.635Z,99490.87
2018-02-01T15:20:55.948Z,99492.25
2018-02-01T15:23:24.376Z,99500.63
2018-02-01T15:25:52.753Z,99508.55
2018-02-01T15:28:21.112Z,99503.48
2018-02-01T15:30:49.497Z,99511.92
2018-02-01T15:33:17.820Z,99532.08
2018-02-01T15:35:46.155Z,99524.31
2018-02-01T15:38:14.511Z,99521.78
2018-02-01T15:40:43.631Z,99520.05
2018-02-01T15:43:12.372Z,99517.47
2018-02-01T15:45:40.695Z,99528.04
2018-02-01T15:48:09.080Z,99534.68
2018-02-01T15:50:37.456Z,99514.61
2018-02-01T15:53:05.799Z,99492.80
2018-02-01T15:55:34.879Z,99494.18
2018-02-01T15:58:03.247Z,99507.75
2018-02-01T16:00:33.106Z,99517.41
2018-02-01T16:03:01.480Z,99526.67
2018-02-01T16:05:29.792Z,99527.61
2018-02-01T16:07:58.178Z,99522.02
2018-02-01T16:10:26.556Z,99519.84
2018-02-01T16:12:54.899Z,99531.69
2018-02-01T16:15:23.266Z,99528.66
2018-02-01T16:17:51.615Z,99533.03
2018-02-01T16:20:20.722Z,99542.67
2018-02-01T16:22:50.584Z,99550.97
2018-02-01T16:25:18.954Z,99548.80
2018-02-01T16:27:47.674Z,99554.05
2018-02-01T16:30:16.016Z,99545.33
2018-02-01T16:32:44.564Z,99542.32
2018-02-01T16:35:14.612Z,99560.66
2018-02-01T16:37:42.959Z,99558.98
2018-02-01T16:40:11.724Z,99540.19
2018-02-01T16:42:40.140Z,99538.08
2018-02-01T16:45:09.246Z,99539.39
2018-02-01T16:47:37.658Z,99535.02
2018-02-01T16:50:06.827Z,99535.02
2018-02-01T16:52:35.167Z,99536.34
2018-02-01T16:55:03.543Z,99541.64
2018-02-01T16:57:32.645Z,99532.56
2018-02-01T17:00:01.787Z,99541.79
2018-02-01T17:02:30.147Z,99545.34
2018-02-01T17:04:58.554Z,99540.12
2018-02-01T17:07:26.897Z,99530.16
2018-02-01T17:09:56.863Z,99540.19
2018-02-01T17:12:25.199Z,99550.66
2018-02-01T17:14:53.548Z,99540.69
2018-02-01T17:17:22.744Z,99531.99
2018-02-01T17:19:52.473Z,99542.06
2018-02-01T17:22:20.866Z,99545.55
2018-02-01T17:24:49.206Z,99552.53
2018-02-01T17:27:19.123Z,99556.48
2018-02-01T17:29:48.240Z,99556.45
2018-02-01T17:32:16.632Z,99550.41
2018-02-01T17:34:45.399Z,99551.75
2018-02-01T17:37:13.801Z,99550.46
2018-02-01T17:39:42.139Z,99550.45
2018-02-01T17:42:11.268Z,99559.60
2018-02-01T17:44:39.619Z,99567.88
2018-02-01T17:47:08.814Z,99585.33
2018-02-01T17:49:37.911Z,99591.44
2018-02-01T17:52:07.035Z,99591.47
2018-02-01T17:54:35.360Z,99592.78
2018-02-01T17:57:05.186Z,99574.07
2018-02-01T17:59:35.231Z,99557.97
2018-02-01T18:02:03.602Z,99581.07
2018-02-01T18:04:31.992Z,99599.35
2018-02-01T18:07:00.712Z,99602.84
2018-02-01T18:09:29.187Z,99595.44
2018-02-01T18:11:57.571Z,99590.21
2018-02-01T18:14:27.486Z,99598.48
2018-02-01T18:16:55.803Z,99606.79
2018-02-01T18:19:25.688Z,99613.78
2018-02-01T18:21:54.057Z,99615.09
2018-02-01T18:24:23.986Z,99624.66
2018-02-01T18:26:52.398Z,99625.94
2018-02-01T18:29:21.501Z,99625.97
2018-02-01T18:31:50.865Z,99616.83
2018-02-01T18:34:19.975Z,99609.44
2018-02-01T18:36:50.141Z,99613.78
2018-02-01T18:39:19.283Z,99597.69
2018-02-01T18:41:48.875Z,99600.33
2018-02-01T18:44:17.238Z,99606.84
2018-02-01T18:46:45.771Z,99608.59
2018-02-01T18:49:15.541Z,99603.00
2018-02-01T18:51:44.831Z,99609.08
2018-02-01T18:54:13.938Z,99610.81
2018-02-01T18:56:43.713Z,99612.15
2018-02-01T18:59:12.110Z,99611.27
2018-02-01T19:01:40.434Z,99613.05
2018-02-01T19:04:10.141Z,99601.75
2018-02-01T19:06:40.058Z,99620.00
2018-02-01T19:09:10.153Z,99616.91
2018-02-01T19:11:42.800Z,99615.58
2018-02-01T19:14:14.179Z,99616.91
2018-02-01T19:16:42.601Z,99619.13
2018-02-01T19:19:11.729Z,99621.73
2018-02-01T19:21:40.203Z,99636.52
2018-02-01T19:24:08.597Z,99641.73
2018-02-01T19:26:36.954Z,99633.51
2018-02-01T19:29:06.041Z,99629.16
2018-02-01T19:31:34.437Z,99636.11
2018-02-01T19:34:03.605Z,99646.55
2018-02-01T19:36:32.129Z,99649.59
2018-02-01T19:39:00.458Z,99650.02
2018-02-01T19:41:29.653Z,99653.05
2018-02-01T19:43:58.057Z,99661.30
2018-02-01T19:46:26.551Z,99652.61
2018-02-01T19:48:55.628Z,99653.04
2018-02-01T19:51:24.766Z,99650.45
2018-02-01T19:53:53.937Z,99641.74
2018-02-01T19:56:23.102Z,99648.25
2018-02-01T19:58:51.474Z,99651.72
2018-02-01T20:01:19.886Z,99646.94
2018-02-01T20:03:48.248Z,99648.23
2018-02-01T20:06:16.981Z,99653.44
2018-02-01T20:08:45.353Z,99647.34
2018-02-01T20:11:13.736Z,99642.59
2018-02-01T20:13:42.486Z,99640.84
2018-02-01T20:16:10.893Z,99639.09
2018-02-01T20:18:39.241Z,99640.42
2018-02-01T20:21:08.853Z,99637.37
2018-02-01T20:23:37.832Z,99632.58
2018-02-01T20:26:07.013Z,99638.67
2018-02-01T20:28:36.220Z,99635.18
2018-02-01T20:31:04.694Z,99632.56
2018-02-01T20:33:34.038Z,99621.66
2018-02-01T20:36:03.218Z,99623.83
2018-02-01T20:38:33.298Z,99635.56
2018-02-01T20:41:02.134Z,99632.52
2018-02-01T20:43:30.512Z,99634.67
2018-02-01T20:46:03.992Z,99640.77
2018-02-01T20:48:32.480Z,99637.30
2018-02-01T20:51:01.656Z,99642.50
2018-02-01T20:53:30.032Z,99652.48
2018-02-01T20:55:58.586Z,99642.06
2018-02-01T20:58:27.733Z,99644.63
2018-02-01T21:00:56.956Z,99646.41
2018-02-01T21:03:26.193Z,99652.11
2018-02-01T21:05:57.669Z,99641.24
2018-02-01T21:08:27.494Z,99636.84
2018-02-01T21:10:55.844Z,99634.68
2018-02-01T21:13:24.209Z,99635.98
2018-02-01T21:15:52.576Z,99637.30
2018-02-01T21:18:21.724Z,99641.16
2018-02-01T21:20:50.096Z,99638.13
2018-02-01T21:23:18.537Z,99636.38
2018-02-01T21:25:47.631Z,99642.42
2018-02-01T21:28:17.478Z,99643.75
2018-02-01T21:30:46.227Z,99645.94
2018-02-01T21:33:15.348Z,99651.14
2018-02-01T21:35:44.596Z,99653.33
2018-02-01T21:38:12.924Z,99649.84
2018-02-01T21:40:41.277Z,99647.62
2018-02-01T21:43:10.365Z,99651.59
2018-02-01T21:45:38.712Z,99642.92
2018-02-01T21:48:07.072Z,99641.16
2018-02-01T21:50:35.492Z,99653.29
2018-02-01T21:53:03.830Z,99643.75
2018-02-01T21:55:32.208Z,99643.33
2018-02-01T21:58:01.988Z,99643.30
2018-02-01T22:00:30.604Z,99642.86
2018-02-01T22:02:59.163Z,99648.05
2018-02-01T22:05:27.547Z,99650.67
2018-02-01T22:07:55.916Z,99657.17
2018-02-01T22:10:25.029Z,99662.73
2018-02-01T22:12:53.372Z,99664.04
2018-02-01T22:15:22.504Z,99666.61
2018-02-01T22:17:50.869Z,99676.13
2018-02-01T22:20:19.234Z,99665.75
2018-02-01T22:22:48.732Z,99664.91
2018-02-01T22:25:18.635Z,99673.13
2018-02-01T22:27:47.408Z,99671.86
2018-02-01T22:30:16.159Z,99671.86
2018-02-01T22:32:44.548Z,99672.78
2018-02-01T22:35:13.768Z,99681.02
2018-02-01T22:37:42.127Z,99686.65
2018-02-01T22:40:10.857Z,99687.16
2018-02-01T22:42:40.003Z,99693.69
2018-02-01T22:45:08.331Z,99698.89
2018-02-01T22:47:37.457Z,99701.50
2018-02-01T22:50:05.820Z,99695.42
2018-02-01T22:52:34.539Z,99696.74
2018-02-01T22:55:03.303Z,99700.23
2018-02-01T22:57:31.697Z,99710.58
2018-02-01T23:00:00.038Z,99710.55
2018-02-01T23:02:28.387Z,99707.55
2018-02-01T23:04:57.557Z,99707.13
2018-02-01T23:07:25.891Z,99710.11
2018-02-01T23:09:54.971Z,99707.50
2018-02-01T23:12:24.115Z,99714.48
2018-02-01T23:14:52.489Z,99704.05
2018-02-01T23:17:20.831Z,99697.97
2018-02-01T23:19:49.957Z,99700.97
2018-02-01T23:22:18.329Z,99701.41
2018-02-01T23:24:46.659Z,99705.67
2018-02-01T23:27:15.029Z,99707.42
2018-02-01T23:29:43.587Z,99706.95
2018-02-01T23:32:11.931Z,99703.50
2018-02-01T23:34:41.059Z,99703.95
2018-02-01T23:37:09.454Z,99704.32
2018-02-01T23:39:37.811Z,99708.20
2018-02-01T23:42:06.183Z,99708.20
2018-02-01T23:44:35.280Z,99705.19
2018-02-01T23:47:03.604Z,99703.47
2018-02-01T23:49:31.979Z,99701.24
2018-02-01T23:52:00.311Z,99704.24
2018-02-01T23:54:28.692Z,99692.58
2018-02-01T23:56:57.026Z,99694.75
2018-02-01T23:59:26.495Z,99692.98
